Time;durP1;ratioP1;P1;durP2;ratioP2;P2;SDS_P1;SDS_P2;PMS_P1;PMS_P2;Temp;Humidity;BMP_temperature;BMP_pressure;BME280_temperature;BME280_humidity;BME280_pressure;Samples;Min_cycle;Max_cycle;Signal;HPM_P1;HPM_P2
2022/04/21 00:01:47;;;;;;;1.60;0.80;;;20.10;38.20;19.30;101161.00;;;;5037440;28;20045;-64
2022/04/21 00:04:33;;;;;;;0.85;0.70;;;20.10;38.20;19.30;101160.00;;;;5037887;28;20045;-64
2022/04/21 00:07:19;;;;;;;0.98;0.85;;;20.10;38.20;19.30;101161.00;;;;5033654;28;20042;-65
2022/04/21 00:10:07;;;;;;;1.55;1.08;;;20.20;38.30;19.30;101157.00;;;;5039234;28;20095;-65
2022/04/21 00:12:54;;;;;;;1.52;0.70;;;20.10;38.20;19.30;101157.00;;;;5007462;28;20045;-65
2022/04/21 00:15:40;;;;;;;1.83;0.82;;;20.20;38.30;19.30;101148.00;;;;5036681;28;20049;-64
2022/04/21 00:18:26;;;;;;;1.27;0.90;;;20.20;38.30;19.30;101146.00;;;;5039686;28;20041;-64
2022/04/21 00:21:12;;;;;;;1.30;0.65;;;20.20;38.30;19.30;101156.00;;;;5036074;28;20064;-65
2022/04/21 00:23:59;;;;;;;1.20;0.60;;;20.20;38.30;19.30;101143.00;;;;5037250;28;20278;-65
2022/04/21 00:26:45;;;;;;;0.60;0.60;;;20.20;38.30;19.30;101141.00;;;;5032557;28;20049;-65
2022/04/21 00:29:31;;;;;;;0.82;0.80;;;20.20;38.30;19.30;101133.00;;;;5038256;28;20048;-65
2022/04/21 00:32:17;;;;;;;1.15;0.93;;;20.10;38.30;19.30;101134.00;;;;5034792;28;20041;-64
2022/04/21 00:35:04;;;;;;;2.60;0.80;;;20.20;38.30;19.30;101139.00;;;;5043458;28;20052;-64
2022/04/21 00:37:52;;;;;;;1.17;0.77;;;20.20;38.30;19.30;101135.00;;;;5020256;28;20049;-64
2022/04/21 00:40:38;;;;;;;1.35;0.85;;;20.20;38.30;19.30;101139.00;;;;5031238;28;20442;-64
2022/04/21 00:43:24;;;;;;;1.75;0.80;;;20.20;38.30;19.30;101131.00;;;;5030627;28;20042;-65
2022/04/21 00:46:17;;;;;;;1.05;0.70;;;20.20;38.40;19.30;101130.00;;;;5034852;28;20433;-64
2022/04/21 00:49:04;;;;;;;0.95;0.80;;;20.20;38.40;19.30;101130.00;;;;5026792;28;20135;-65
2022/04/21 00:51:50;;;;;;;0.63;0.60;;;20.10;38.40;19.20;101118.00;;;;5036473;28;20116;-65
2022/04/21 00:54:36;;;;;;;1.15;0.85;;;20.10;38.40;19.20;101112.00;;;;5031488;28;20234;-64
2022/04/21 00:57:22;;;;;;;0.60;0.60;;;20.00;38.40;19.20;101114.00;;;;5028616;28;20048;-65
2022/04/21 01:00:10;;;;;;;0.85;0.70;;;20.10;38.50;19.20;101117.00;;;;5028100;28;20052;-65
2022/04/21 01:02:57;;;;;;;1.10;0.80;;;20.10;38.40;19.20;101114.00;;;;5032357;28;20053;-65
2022/04/21 01:05:43;;;;;;;0.70;0.70;;;20.10;38.50;19.20;101114.00;;;;5012184;28;20076;-64
2022/04/21 01:08:29;;;;;;;2.25;0.60;;;20.20;38.60;19.20;101109.00;;;;5035305;28;20101;-65
2022/04/21 01:11:16;;;;;;;0.73;0.73;;;20.10;38.50;19.20;101107.00;;;;5045920;28;20044;-65
2022/04/21 01:14:02;;;;;;;0.80;0.68;;;20.10;38.60;19.20;101111.00;;;;5021540;28;20122;-64
2022/04/21 01:16:48;;;;;;;1.25;0.77;;;20.10;38.60;19.20;101114.00;;;;5013075;28;20073;-64
2022/04/21 01:19:34;;;;;;;1.23;0.65;;;20.10;38.60;19.20;101107.00;;;;5048537;28;20303;-65
2022/04/21 01:22:20;;;;;;;1.15;0.65;;;20.10;38.60;19.20;101107.00;;;;5024082;28;20041;-65
2022/04/21 01:25:07;;;;;;;0.90;0.68;;;20.10;38.60;19.20;101101.00;;;;5039254;28;20040;-64
2022/04/21 01:27:58;;;;;;;1.20;0.82;;;20.10;38.70;19.20;101095.00;;;;5016489;28;20469;-65
2022/04/21 01:30:44;;;;;;;0.90;0.70;;;20.10;38.60;19.20;101105.00;;;;5001105;28;20052;-64
2022/04/21 01:33:30;;;;;;;1.48;0.90;;;20.10;38.60;19.20;101105.00;;;;5041351;28;20040;-65
2022/04/21 01:36:16;;;;;;;1.73;0.70;;;20.10;38.60;19.20;101099.00;;;;5035730;28;20045;-64
2022/04/21 01:42:12;;;;;;;1.77;0.70;;;20.10;38.70;19.20;101100.00;;;;5036881;28;20050;-64
2022/04/21 01:44:58;;;;;;;0.82;0.77;;;20.00;38.60;19.20;101090.00;;;;5030710;28;20071;-65
2022/04/21 01:47:44;;;;;;;0.98;0.90;;;20.00;38.70;19.20;101091.00;;;;5035451;28;20041;-65
2022/04/21 01:50:30;;;;;;;0.95;0.75;;;20.00;38.70;19.20;101090.00;;;;5041950;28;20300;-64
2022/04/21 01:53:17;;;;;;;1.50;0.73;;;19.90;38.70;19.20;101085.00;;;;5036119;28;20096;-64
2022/04/21 01:56:03;;;;;;;2.63;0.80;;;20.00;38.70;19.20;101089.00;;;;5038845;28;20194;-65
2022/04/21 01:58:50;;;;;;;1.33;0.60;;;20.00;38.80;19.20;101087.00;;;;5035749;28;20045;-64
2022/04/21 02:01:36;;;;;;;1.48;0.60;;;20.00;38.70;19.20;101084.00;;;;5036374;28;20045;-64
2022/04/21 02:04:22;;;;;;;1.25;0.70;;;20.00;38.80;19.10;101079.00;;;;5034600;28;20470;-65
2022/04/21 02:07:09;;;;;;;0.50;0.50;;;20.00;38.80;19.20;101090.00;;;;5036077;28;20049;-65
2022/04/21 02:09:55;;;;;;;1.67;0.80;;;20.10;38.90;19.10;101078.00;;;;5037832;28;20132;-64
2022/04/21 02:12:41;;;;;;;1.63;1.00;;;20.00;38.70;19.10;101083.00;;;;5025445;28;20041;-64
2022/04/21 02:15:28;;;;;;;0.95;0.70;;;20.00;38.80;19.10;101086.00;;;;5037269;28;20461;-65
2022/04/21 02:18:14;;;;;;;1.00;0.60;;;20.00;38.80;19.10;101083.00;;;;5029969;28;20037;-64
2022/04/21 02:21:00;;;;;;;0.70;0.60;;;20.00;38.80;19.20;101079.00;;;;5033482;28;20045;-64
2022/04/21 02:23:46;;;;;;;1.35;0.70;;;20.00;38.80;19.10;101080.00;;;;5034631;28;20406;-64
2022/04/21 02:26:32;;;;;;;0.90;0.60;;;20.10;38.80;19.10;101071.00;;;;5038502;28;20037;-64
2022/04/21 02:29:18;;;;;;;0.85;0.60;;;20.00;38.70;19.10;101077.00;;;;5022330;28;20478;-64
2022/04/21 02:32:04;;;;;;;0.63;0.63;;;20.10;38.80;19.20;101071.00;;;;5040550;28;20044;-64
2022/04/21 02:34:53;;;;;;;1.08;0.75;;;20.00;38.70;19.10;101071.00;;;;5026607;28;20656;-64
2022/04/21 02:37:42;;;;;;;2.05;0.77;;;20.00;38.80;19.10;101073.00;;;;5026209;28;20063;-64
2022/04/21 02:40:28;;;;;;;1.17;0.52;;;19.90;38.70;19.10;101068.00;;;;5023434;28;20410;-64
2022/04/21 02:43:14;;;;;;;1.08;0.80;;;20.00;38.80;19.10;101071.00;;;;5033898;28;20044;-65
2022/04/21 02:46:01;;;;;;;0.93;0.70;;;20.10;38.90;19.10;101068.00;;;;5037404;28;20084;-64
2022/04/21 02:48:47;;;;;;;1.48;0.75;;;20.00;38.90;19.10;101068.00;;;;5028502;28;20129;-64
2022/04/21 02:51:33;;;;;;;1.67;0.70;;;20.00;38.80;19.10;101065.00;;;;5014678;28;20084;-65
2022/04/21 02:57:25;;;;;;;0.63;0.63;;;20.00;38.80;19.10;101069.00;;;;5026989;28;20125;-64
2022/04/21 03:00:12;;;;;;;1.33;1.00;;;20.00;38.80;19.10;101063.00;;;;5026733;28;20916;-65
2022/04/21 03:02:58;;;;;;;2.45;0.57;;;20.00;38.80;19.10;101066.00;;;;5033270;28;20081;-64
2022/04/21 03:05:44;;;;;;;0.80;0.57;;;20.00;38.80;19.10;101062.00;;;;5033042;28;20037;-64
2022/04/21 03:08:30;;;;;;;0.70;0.60;;;20.00;38.80;19.10;101069.00;;;;5043220;28;20452;-64
2022/04/21 03:11:17;;;;;;;0.73;0.65;;;20.00;38.80;19.10;101072.00;;;;5035422;28;20048;-65
2022/04/21 03:14:03;;;;;;;1.15;0.60;;;20.00;38.90;19.10;101074.00;;;;5023105;28;20037;-64
2022/04/21 03:16:49;;;;;;;0.85;0.60;;;19.90;38.80;19.00;101074.00;;;;5038197;28;20045;-65
2022/04/21 03:19:35;;;;;;;2.30;0.70;;;19.90;38.90;19.00;101066.00;;;;5033745;28;20049;-65
2022/04/21 03:25:30;;;;;;;0.88;0.70;;;20.00;39.00;19.00;101068.00;;;;5036786;28;20478;-65
2022/04/21 03:28:16;;;;;;;1.38;0.77;;;19.90;38.90;19.00;101072.00;;;;5034677;28;20046;-64
2022/04/21 03:31:02;;;;;;;1.05;0.70;;;19.90;39.00;19.00;101063.00;;;;5023755;28;20049;-65
2022/04/21 03:33:50;;;;;;;0.98;0.70;;;19.90;39.00;19.00;101066.00;;;;5037096;28;20229;-65
2022/04/21 03:36:36;;;;;;;0.75;0.70;;;19.90;39.10;19.00;101061.00;;;;5040299;28;20429;-64
2022/04/21 03:39:22;;;;;;;0.80;0.80;;;19.80;39.00;18.90;101073.00;;;;5044167;28;20041;-65
2022/04/21 03:42:22;;;;;;;1.08;0.60;;;19.80;39.00;18.90;101066.00;;;;5042465;28;20456;-64
2022/04/21 03:45:09;;;;;;;0.80;0.77;;;19.80;39.10;18.90;101065.00;;;;5015056;28;20079;-65
2022/04/21 03:47:56;;;;;;;1.65;0.80;;;19.80;39.10;18.90;101067.00;;;;5040781;28;20039;-64
2022/04/21 03:50:43;;;;;;;1.00;0.77;;;19.80;39.10;18.90;101060.00;;;;5037662;28;20514;-65
2022/04/21 03:53:30;;;;;;;1.70;0.63;;;19.80;39.20;18.90;101066.00;;;;5040908;28;20701;-65
2022/04/21 03:56:16;;;;;;;1.13;0.65;;;19.80;39.20;18.90;101064.00;;;;5036803;28;20029;-64
2022/04/21 03:59:02;;;;;;;1.25;0.60;;;19.70;39.20;18.90;101066.00;;;;5041456;28;20048;-64
2022/04/21 04:01:48;;;;;;;1.45;0.60;;;19.70;39.20;18.90;101071.00;;;;5036085;28;20106;-64
2022/04/21 04:04:35;;;;;;;1.75;0.77;;;19.70;39.20;18.90;101068.00;;;;5038412;28;20041;-64
2022/04/21 04:13:30;;;;;;;1.58;0.50;;;19.70;39.20;18.90;101064.00;;;;5039827;28;20044;-64
2022/04/21 04:16:19;;;;;;;0.80;0.60;;;19.70;39.30;18.90;101071.00;;;;5040771;28;20036;-64
2022/04/21 04:19:07;;;;;;;2.05;0.77;;;19.70;39.30;18.90;101061.00;;;;5027502;28;20132;-65
2022/04/21 04:21:53;;;;;;;1.73;0.80;;;19.70;39.30;18.90;101065.00;;;;5036270;28;20041;-64
2022/04/21 04:24:40;;;;;;;1.20;0.77;;;19.70;39.30;18.90;101068.00;;;;5037466;28;20041;-64
2022/04/21 04:27:26;;;;;;;1.58;0.80;;;19.70;39.40;18.90;101065.00;;;;5037059;28;20076;-64
2022/04/21 04:30:12;;;;;;;0.77;0.60;;;19.70;39.40;18.90;101075.00;;;;5036312;28;20033;-64
2022/04/21 04:32:58;;;;;;;0.90;0.70;;;19.70;39.40;18.90;101072.00;;;;5035602;28;20053;-64
2022/04/21 04:35:44;;;;;;;1.73;0.73;;;19.70;39.40;18.90;101076.00;;;;5014505;28;20137;-64
2022/04/21 04:38:30;;;;;;;1.48;0.82;;;19.80;39.40;18.90;101080.00;;;;5041834;28;20064;-64
2022/04/21 04:44:21;;;;;;;1.02;0.80;;;19.80;39.40;18.90;101075.00;;;;5041580;28;20159;-64
2022/04/21 04:47:07;;;;;;;0.95;0.85;;;19.70;39.40;18.90;101079.00;;;;5023912;28;20426;-64
2022/04/21 04:49:53;;;;;;;0.63;0.60;;;19.70;39.40;18.90;101073.00;;;;5032219;28;20037;-64
2022/04/21 04:52:39;;;;;;;0.98;0.70;;;19.70;39.40;18.90;101074.00;;;;5036676;28;20075;-64
2022/04/21 04:55:26;;;;;;;1.10;0.85;;;19.70;39.40;18.90;101079.00;;;;5031096;28;20044;-64
2022/04/21 04:58:13;;;;;;;0.82;0.73;;;19.70;39.40;18.90;101068.00;;;;5040400;28;20556;-65
2022/04/21 05:00:59;;;;;;;1.77;1.02;;;19.70;39.40;18.90;101081.00;;;;5045305;28;20045;-64
2022/04/21 05:03:45;;;;;;;1.00;0.90;;;19.80;39.40;18.90;101073.00;;;;5025960;28;20435;-64
2022/04/21 05:06:39;;;;;;;0.98;0.75;;;19.80;39.40;18.90;101074.00;;;;5042231;28;20602;-64
2022/04/21 05:09:26;;;;;;;1.33;0.73;;;19.70;39.40;18.90;101070.00;;;;5025513;28;20040;-64
2022/04/21 05:12:12;;;;;;;1.00;0.73;;;19.70;39.40;18.90;101069.00;;;;5038879;28;20045;-64
2022/04/21 05:14:58;;;;;;;0.88;0.77;;;19.80;39.50;18.90;101072.00;;;;5043426;28;20045;-64
2022/04/21 05:17:45;;;;;;;0.70;0.70;;;19.70;39.40;18.90;101064.00;;;;5043392;28;20126;-64
2022/04/21 05:20:31;;;;;;;2.10;1.00;;;19.70;39.40;18.90;101059.00;;;;5030323;28;20120;-64
2022/04/21 05:23:17;;;;;;;1.23;0.85;;;19.70;39.40;18.90;101064.00;;;;5038369;28;20409;-64
2022/04/21 05:26:04;;;;;;;1.63;0.98;;;19.70;39.40;18.90;101060.00;;;;5010173;28;20033;-64
2022/04/21 05:28:50;;;;;;;1.17;0.85;;;19.70;39.40;18.90;101067.00;;;;5045109;28;20120;-64
2022/04/21 05:31:36;;;;;;;0.80;0.75;;;19.70;39.40;18.90;101066.00;;;;5039273;28;20040;-64
2022/04/21 05:34:23;;;;;;;1.40;1.30;;;19.70;39.50;18.90;101061.00;;;;5040727;28;20466;-64
2022/04/21 05:37:10;;;;;;;1.23;0.90;;;19.70;39.40;18.90;101063.00;;;;5041866;28;20478;-64
2022/04/21 05:39:56;;;;;;;1.13;1.02;;;19.70;39.50;18.90;101060.00;;;;5027109;28;20052;-64
2022/04/21 05:42:45;;;;;;;1.00;0.82;;;19.70;39.40;18.90;101048.00;;;;5021331;28;20048;-65
2022/04/21 05:45:31;;;;;;;1.55;1.10;;;19.70;39.40;18.90;101053.00;;;;5015127;28;20135;-64
2022/04/21 05:48:18;;;;;;;1.48;1.00;;;19.70;39.40;18.90;101055.00;;;;5037952;28;20177;-64
2022/04/21 05:51:04;;;;;;;2.25;1.00;;;19.70;39.40;18.90;101052.00;;;;5037333;28;20041;-64
2022/04/21 05:53:51;;;;;;;1.98;1.23;;;19.70;39.50;18.90;101055.00;;;;5009967;28;20041;-64
2022/04/21 05:56:37;;;;;;;1.23;1.08;;;19.70;39.40;18.80;101057.00;;;;5025773;28;20052;-64
2022/04/21 05:59:23;;;;;;;1.30;1.02;;;19.70;39.40;18.80;101064.00;;;;5040718;28;20084;-64
2022/04/21 06:02:10;;;;;;;1.75;1.10;;;19.70;39.40;18.90;101063.00;;;;5042949;28;20375;-64
2022/04/21 06:04:59;;;;;;;1.52;1.08;;;19.70;39.50;18.80;101064.00;;;;4998282;28;20045;-64
2022/04/21 06:07:45;;;;;;;1.25;1.00;;;19.70;39.40;18.90;101058.00;;;;5036176;28;20076;-64
2022/04/21 06:10:31;;;;;;;1.70;1.25;;;19.70;39.40;18.80;101057.00;;;;5040895;28;20045;-64
2022/04/21 06:13:18;;;;;;;1.33;1.00;;;19.70;39.50;18.90;101064.00;;;;5031433;28;20043;-64
2022/04/21 06:16:04;;;;;;;0.73;0.70;;;19.70;39.50;18.90;101060.00;;;;5039534;28;20045;-64
2022/04/21 06:18:50;;;;;;;1.23;0.90;;;19.70;39.50;18.80;101060.00;;;;5029889;28;20057;-64
2022/04/21 06:21:36;;;;;;;0.75;0.75;;;19.70;39.50;18.90;101060.00;;;;5034885;28;20044;-64
2022/04/21 06:24:22;;;;;;;0.93;0.85;;;19.70;39.50;18.80;101056.00;;;;5042652;28;20111;-64
2022/04/21 06:27:08;;;;;;;2.20;1.02;;;19.70;39.50;18.80;101058.00;;;;5036609;28;20265;-64
2022/04/21 06:29:54;;;;;;;1.45;0.95;;;19.70;39.50;18.90;101053.00;;;;5028254;28;20049;-64
2022/04/21 06:32:41;;;;;;;1.15;0.90;;;19.80;39.50;18.80;101053.00;;;;5036629;28;20041;-64
2022/04/21 06:35:27;;;;;;;1.75;1.08;;;19.70;39.50;18.80;101059.00;;;;5025734;28;20163;-64
2022/04/21 06:38:13;;;;;;;1.88;0.95;;;19.70;39.50;18.90;101058.00;;;;5024065;28;20037;-64
2022/04/21 06:41:01;;;;;;;1.83;1.08;;;19.70;39.50;18.90;101065.00;;;;5023509;28;20041;-65
2022/04/21 06:49:55;;;;;;;1.65;0.93;;;19.70;39.40;18.90;101063.00;;;;5039260;28;20037;-64
2022/04/21 06:52:41;;;;;;;1.95;1.00;;;19.80;39.50;18.80;101064.00;;;;5043130;28;20052;-65
2022/04/21 06:55:28;;;;;;;1.23;0.80;;;19.80;39.50;18.90;101059.00;;;;5037711;28;20504;-64
2022/04/21 06:58:14;;;;;;;2.55;0.77;;;19.80;39.50;18.90;101053.00;;;;5025856;28;20044;-64
2022/04/21 07:01:00;;;;;;;1.65;1.08;;;19.80;39.50;18.90;101058.00;;;;5038923;28;20057;-64
2022/04/21 07:03:46;;;;;;;2.58;1.38;;;19.70;39.50;18.90;101062.00;;;;5046509;28;20056;-65
2022/04/21 07:06:32;;;;;;;1.38;0.85;;;19.80;39.50;18.90;101066.00;;;;5033623;28;20044;-64
2022/04/21 07:09:18;;;;;;;1.45;0.85;;;19.80;39.60;18.90;101067.00;;;;5038536;28;20482;-64
2022/04/21 07:12:04;;;;;;;1.25;0.93;;;19.80;39.50;18.90;101064.00;;;;5038713;28;20052;-64
2022/04/21 07:14:50;;;;;;;1.63;0.98;;;19.80;39.60;18.90;101062.00;;;;5033231;28;20313;-64
2022/04/21 07:17:37;;;;;;;2.03;1.08;;;19.80;39.50;18.90;101073.00;;;;5032790;28;20045;-64
2022/04/21 07:20:23;;;;;;;3.05;0.80;;;19.80;39.50;18.90;101067.00;;;;5032410;28;20483;-64
2022/04/21 07:23:09;;;;;;;0.85;0.73;;;19.80;39.60;18.90;101063.00;;;;5039652;28;20041;-64
2022/04/21 07:25:55;;;;;;;1.80;0.80;;;19.80;39.50;18.90;101071.00;;;;5038330;28;20482;-64
2022/04/21 07:28:43;;;;;;;1.20;0.75;;;19.80;39.50;18.90;101069.00;;;;5032676;28;20426;-64
2022/04/21 07:31:29;;;;;;;1.75;0.85;;;19.80;39.50;18.90;101070.00;;;;5014922;28;20487;-64
2022/04/21 07:34:15;;;;;;;2.28;0.90;;;19.80;39.40;18.90;101070.00;;;;5034266;28;20037;-64
2022/04/21 07:37:01;;;;;;;0.80;0.80;;;19.80;39.40;18.90;101069.00;;;;5030704;28;20049;-65
2022/04/21 07:39:47;;;;;;;1.35;0.80;;;19.80;39.40;18.90;101066.00;;;;5048111;28;20038;-65
2022/04/21 07:42:33;;;;;;;1.02;0.90;;;19.80;39.40;18.90;101067.00;;;;5032366;28;20486;-64
2022/04/21 07:45:19;;;;;;;2.63;0.90;;;19.70;39.40;18.90;101063.00;;;;5036275;28;20029;-64
2022/04/21 07:48:06;;;;;;;1.38;0.90;;;19.80;39.40;18.90;101068.00;;;;5036903;28;20068;-64
2022/04/21 07:50:52;;;;;;;1.48;0.90;;;19.80;39.50;18.90;101061.00;;;;5015315;28;20037;-64
2022/04/21 07:53:38;;;;;;;0.93;0.77;;;19.80;39.50;18.90;101061.00;;;;5042117;28;20076;-64
2022/04/21 07:56:24;;;;;;;2.55;0.90;;;19.80;39.50;18.90;101055.00;;;;5045115;28;20305;-64
2022/04/21 07:59:10;;;;;;;1.63;0.90;;;19.70;39.30;18.90;101054.00;;;;5042749;28;20111;-64
2022/04/21 08:01:56;;;;;;;2.70;1.40;;;19.80;39.40;18.90;101068.00;;;;5035085;28;20383;-64
2022/04/21 08:04:47;;;;;;;1.30;0.70;;;19.80;39.40;18.90;101063.00;;;;5041140;28;20346;-64
2022/04/21 08:07:34;;;;;;;0.80;0.70;;;19.90;39.40;18.90;101065.00;;;;5039369;28;20044;-64
2022/04/21 08:10:22;;;;;;;1.77;0.90;;;19.80;39.40;18.90;101062.00;;;;5022004;28;20060;-64
2022/04/21 08:13:09;;;;;;;1.85;0.93;;;19.80;39.40;18.90;101054.00;;;;5040269;28;20477;-64
2022/04/21 08:15:55;;;;;;;1.40;0.77;;;19.80;39.30;18.90;101057.00;;;;5035773;28;20494;-64
2022/04/21 08:18:41;;;;;;;1.88;1.00;;;19.80;39.40;18.90;101058.00;;;;5039169;28;20049;-64
2022/04/21 08:21:27;;;;;;;1.98;0.90;;;19.90;39.60;18.90;101059.00;;;;5037431;28;20587;-64
2022/04/21 08:33:27;;;;;;;1.42;0.75;;;19.80;39.40;18.90;101063.00;;;;5034742;28;20167;-64
2022/04/21 08:36:13;;;;;;;1.63;1.05;;;19.90;39.50;18.90;101061.00;;;;5033994;28;20180;-64
2022/04/21 08:38:59;;;;;;;1.58;1.15;;;19.80;39.40;18.90;101054.00;;;;5039174;28;20041;-64
2022/04/21 08:41:47;;;;;;;1.25;0.90;;;19.90;39.50;18.90;101054.00;;;;5040643;28;20041;-65
2022/04/21 08:44:33;;;;;;;2.25;0.80;;;19.90;39.50;18.90;101052.00;;;;4998393;28;20037;-64
2022/04/21 08:47:20;;;;;;;1.00;0.90;;;19.80;39.50;18.90;101058.00;;;;5010677;28;20029;-64
2022/04/21 08:50:10;;;;;;;1.95;1.13;;;19.90;39.50;18.90;101052.00;;;;5007880;28;20640;-64
2022/04/21 08:52:56;;;;;;;2.03;1.08;;;19.90;39.60;18.90;101057.00;;;;5016424;28;20096;-65
2022/04/21 08:55:44;;;;;;;1.48;0.85;;;19.90;40.20;18.90;101060.00;;;;5039788;28;20052;-65
2022/04/21 08:58:30;;;;;;;1.10;1.00;;;19.90;39.50;18.90;101055.00;;;;5012530;28;20046;-64
2022/04/21 09:01:16;;;;;;;1.52;0.90;;;19.90;39.50;18.90;101050.00;;;;5028677;28;20066;-64
2022/04/21 09:04:02;;;;;;;4.18;1.05;;;19.90;39.50;18.90;101062.00;;;;5023165;28;20434;-64
2022/04/21 09:06:48;;;;;;;1.27;0.90;;;19.90;39.60;18.90;101043.00;;;;5037882;28;20064;-64
2022/04/21 09:09:34;;;;;;;1.23;1.00;;;19.90;39.50;18.90;101057.00;;;;5046833;28;20505;-64
2022/04/21 09:12:20;;;;;;;1.30;1.10;;;19.90;39.50;19.00;101052.00;;;;5035355;28;20289;-64
2022/04/21 09:15:10;;;;;;;2.55;1.25;;;19.90;39.50;18.90;101048.00;;;;5050514;28;20053;-64
2022/04/21 09:18:13;;;;;;;1.45;0.90;;;19.90;39.50;18.90;101055.00;;;;5043567;28;20466;-65
2022/04/21 09:21:10;;;;;;;2.60;0.93;;;19.90;39.40;18.90;101062.00;;;;5010850;28;20037;-64
2022/04/21 09:23:56;;;;;;;1.98;1.08;;;19.90;39.30;19.00;101055.00;;;;5033213;28;20037;-65
2022/04/21 09:26:45;;;;;;;3.80;0.90;;;19.90;39.30;19.00;101043.00;;;;5021947;28;20040;-64
2022/04/21 09:29:31;;;;;;;1.67;0.98;;;19.90;39.40;18.90;101048.00;;;;5044473;28;20048;-65
2022/04/21 09:32:18;;;;;;;2.03;1.00;;;19.90;39.30;19.00;101045.00;;;;5034424;28;20041;-64
2022/04/21 09:35:05;;;;;;;2.25;1.05;;;19.90;39.30;18.90;101055.00;;;;5033540;28;20060;-64
2022/04/21 09:37:53;;;;;;;1.65;0.95;;;19.90;39.30;19.00;101049.00;;;;5005466;28;20482;-65
2022/04/21 09:40:39;;;;;;;2.53;1.02;;;19.90;39.20;18.90;101041.00;;;;5039247;28;20119;-64
2022/04/21 09:43:29;;;;;;;1.42;0.85;;;19.90;39.20;19.00;101042.00;;;;4999283;28;20118;-64
2022/04/21 09:46:22;;;;;;;1.65;1.10;;;19.90;39.20;19.00;101038.00;;;;5030149;28;20119;-65
2022/04/21 09:49:08;;;;;;;1.23;0.90;;;19.90;39.00;19.00;101029.00;;;;5041693;28;20121;-64
2022/04/21 09:51:54;;;;;;;1.27;0.90;;;19.90;39.10;19.00;101033.00;;;;5046606;28;20069;-65
2022/04/21 09:54:40;;;;;;;2.90;0.88;;;20.00;39.10;19.00;101035.00;;;;5038394;28;20053;-65
2022/04/21 09:57:31;;;;;;;2.15;1.00;;;19.90;39.00;19.00;101020.00;;;;5044195;28;20068;-64
2022/04/21 10:00:21;;;;;;;1.85;0.80;;;19.90;39.00;19.00;101018.00;;;;5031915;28;20320;-64
2022/04/21 10:03:07;;;;;;;1.27;0.85;;;19.90;39.00;19.00;101009.00;;;;5034171;28;20055;-64
2022/04/21 10:05:53;;;;;;;2.33;0.88;;;19.90;39.00;19.00;101008.00;;;;5024477;28;20049;-65
2022/04/21 10:08:41;;;;;;;1.65;0.82;;;19.90;39.00;19.00;101003.00;;;;5018726;28;20048;-64
2022/04/21 10:11:28;;;;;;;1.23;0.93;;;19.90;39.00;19.00;101005.00;;;;5020933;28;20049;-64
2022/04/21 10:14:15;;;;;;;2.05;1.10;;;19.90;38.90;19.00;101005.00;;;;5023516;28;20048;-64
2022/04/21 10:17:02;;;;;;;1.77;1.17;;;20.00;39.00;19.00;101002.00;;;;5039511;28;20149;-64
2022/04/21 10:19:52;;;;;;;1.27;0.80;;;19.90;38.90;19.00;101002.00;;;;5025973;28;20041;-64
2022/04/21 10:22:38;;;;;;;1.38;0.88;;;19.90;38.80;19.00;101010.00;;;;4998159;28;20033;-64
2022/04/21 10:25:38;;;;;;;1.27;0.90;;;19.90;38.80;19.00;101000.00;;;;5010405;28;20478;-64
2022/04/21 10:28:37;;;;;;;1.23;1.13;;;19.90;38.90;19.00;101012.00;;;;5017208;28;20489;-64
2022/04/21 10:31:34;;;;;;;2.03;1.00;;;19.90;38.90;18.90;101007.00;;;;5039883;28;20048;-64
2022/04/21 10:34:56;;;;;;;1.55;1.02;;;19.90;38.90;18.90;101016.00;;;;5039958;28;20485;-65
2022/04/21 10:37:42;;;;;;;1.23;1.05;;;19.90;38.90;18.90;101014.00;;;;4962719;28;20038;-64
2022/04/21 10:40:28;;;;;;;2.05;1.10;;;19.90;39.00;18.90;101020.00;;;;5033431;28;20049;-64
2022/04/21 10:43:15;;;;;;;1.00;0.90;;;19.90;39.00;19.00;100998.00;;;;5011886;28;20049;-64
2022/04/21 10:46:06;;;;;;;2.77;1.33;;;19.90;39.00;19.00;101018.00;;;;5009811;28;20046;-65
2022/04/21 10:48:52;;;;;;;2.00;1.45;;;19.90;39.00;19.00;101000.00;;;;5037873;28;20267;-64
2022/04/21 10:57:12;;;;;;;2.45;1.15;;;19.90;39.10;19.00;100998.00;;;;5018866;28;20427;-64
2022/04/21 10:57:56;;;;;;;1.55;0.85;;;19.90;39.10;19.00;100991.00;;;;5038002;28;20128;-64
2022/04/21 11:00:42;;;;;;;3.92;1.00;;;19.90;39.20;19.00;100994.00;;;;5032810;28;20045;-64
2022/04/21 11:03:28;;;;;;;2.85;1.48;;;19.90;39.10;19.00;100989.00;;;;5018217;28;20045;-65
2022/04/21 11:06:15;;;;;;;1.85;1.00;;;20.00;39.10;19.00;100984.00;;;;5033313;28;20037;-65
2022/04/21 11:09:01;;;;;;;2.15;1.13;;;19.90;39.10;19.00;100979.00;;;;5012042;28;20041;-64
2022/04/21 11:11:48;;;;;;;2.28;1.05;;;20.00;39.20;19.00;100980.00;;;;5031153;28;20183;-65
2022/04/21 11:14:36;;;;;;;1.30;0.95;;;19.90;39.20;19.00;100979.00;;;;5036149;28;20042;-65
2022/04/21 11:17:22;;;;;;;1.30;0.93;;;20.00;39.20;19.00;100978.00;;;;5021472;28;20040;-65
2022/04/21 11:20:26;;;;;;;1.58;0.90;;;20.00;39.20;19.00;100978.00;;;;4983374;28;20223;-65
2022/04/21 11:23:29;;;;;;;2.42;0.95;;;20.00;39.30;19.00;100980.00;;;;5042742;28;20065;-65
2022/04/21 11:26:15;;;;;;;1.52;1.10;;;20.10;39.30;19.00;100984.00;;;;5045812;28;20148;-65
2022/04/21 11:29:02;;;;;;;1.00;0.93;;;20.00;39.30;19.00;100981.00;;;;5040294;28;20037;-65
2022/04/21 11:31:48;;;;;;;1.90;1.27;;;20.00;39.40;19.00;100981.00;;;;5032671;28;20509;-65
2022/04/21 11:34:35;;;;;;;1.20;1.10;;;19.90;39.30;19.00;100972.00;;;;5040269;28;20136;-64
2022/04/21 11:37:21;;;;;;;3.45;1.10;;;20.00;39.40;19.00;100968.00;;;;5024618;28;20112;-65
2022/04/21 11:40:31;;;;;;;2.13;1.42;;;20.00;39.40;19.00;100967.00;;;;5040740;28;20304;-65
2022/04/21 11:43:17;;;;;;;1.80;1.17;;;20.00;39.40;19.00;100956.00;;;;5032346;28;20474;-64
2022/04/21 11:46:05;;;;;;;2.63;1.27;;;20.10;39.50;19.00;100970.00;;;;5028492;28;20457;-65
2022/04/21 11:49:00;;;;;;;1.48;0.95;;;20.10;39.60;19.00;100957.00;;;;5030011;28;20041;-65
2022/04/21 11:51:52;;;;;;;1.35;1.20;;;20.00;39.40;19.00;100958.00;;;;5017700;28;20110;-65
2022/04/21 11:54:38;;;;;;;3.22;1.42;;;20.10;39.60;19.00;100954.00;;;;5031742;28;20483;-65
2022/04/21 11:57:44;;;;;;;2.22;1.25;;;20.10;40.20;19.10;100959.00;;;;5024294;28;20458;-65
2022/04/21 12:06:47;;;;;;;1.85;0.98;;;20.10;39.70;19.10;100959.00;;;;5025997;28;20044;-65
2022/04/21 12:09:34;;;;;;;1.75;1.10;;;20.10;39.60;19.10;100964.00;;;;5035611;28;20526;-65
2022/04/21 12:12:23;;;;;;;1.25;1.00;;;20.20;39.70;19.10;100954.00;;;;5022835;28;20045;-65
2022/04/21 12:15:09;;;;;;;3.40;1.60;;;20.20;39.70;19.10;100949.00;;;;5027134;28;20041;-64
2022/04/21 12:18:02;;;;;;;2.05;1.27;;;20.20;39.70;19.10;100949.00;;;;5011144;28;20542;-64
2022/04/21 12:20:54;;;;;;;2.13;1.60;;;20.20;39.70;19.10;100956.00;;;;5037646;28;20072;-65
2022/04/21 12:23:41;;;;;;;2.00;1.58;;;20.20;39.70;19.10;100950.00;;;;5043406;28;20118;-64
2022/04/21 12:26:27;;;;;;;1.90;1.40;;;20.20;39.80;19.10;100945.00;;;;5033612;28;20255;-69
2022/04/21 12:29:13;;;;;;;2.67;1.58;;;20.20;39.80;19.10;100948.00;;;;5041119;28;20099;-62
2022/04/21 12:32:02;;;;;;;2.05;1.35;;;20.20;39.80;19.10;100961.00;;;;5026097;28;20048;-62
2022/04/21 12:34:49;;;;;;;2.45;1.80;;;20.20;39.80;19.10;100941.00;;;;5032760;28;20124;-63
2022/04/21 12:37:43;;;;;;;2.55;1.40;;;20.30;40.00;19.10;100940.00;;;;5037780;28;20493;-63
2022/04/21 12:40:29;;;;;;;2.38;1.30;;;20.20;39.90;19.10;100931.00;;;;5008782;28;20041;-62
2022/04/21 12:43:16;;;;;;;2.15;1.42;;;20.30;39.90;19.10;100938.00;;;;5010493;28;20474;-62
2022/04/21 12:46:02;;;;;;;1.88;1.30;;;20.30;39.80;19.20;100927.00;;;;5024318;28;20073;-62
2022/04/21 12:48:48;;;;;;;1.42;1.05;;;20.30;39.90;19.20;100932.00;;;;5022200;28;20056;-64
2022/04/21 12:51:35;;;;;;;3.15;1.50;;;20.30;39.90;19.20;100930.00;;;;5020494;28;20057;-64
2022/04/21 12:54:26;;;;;;;2.70;1.33;;;20.30;39.80;19.20;100921.00;;;;5034501;28;20049;-64
2022/04/21 12:57:13;;;;;;;2.22;1.40;;;20.40;39.90;19.20;100915.00;;;;5023032;28;20041;-64
2022/04/21 13:00:00;;;;;;;2.97;1.52;;;20.30;39.80;19.20;100915.00;;;;5010417;28;20040;-64